sensor_id;sensor_type;location;lat;lon;timestamp;temperature;humidity
11055;DHT22;5580;50.106;8.702;2023-08-07T00:00:22;16.00;99.90
11055;DHT22;5580;50.106;8.702;2023-08-07T00:02:48;16.10;99.90
11055;DHT22;5580;50.106;8.702;2023-08-07T00:05:14;16.00;99.90
11055;DHT22;5580;50.106;8.702;2023-08-07T00:07:42;16.00;99.90
11055;DHT22;5580;50.106;8.702;2023-08-07T00:10:08;16.00;99.90
11055;DHT22;5580;50.106;8.702;2023-08-07T00:12:33;15.90;99.90
11055;DHT22;5580;50.106;8.702;2023-08-07T00:14:59;15.90;99.90
11055;DHT22;5580;50.106;8.702;2023-08-07T00:17:25;15.90;99.90
11055;DHT22;5580;50.106;8.702;2023-08-07T00:19:50;15.90;99.90
11055;DHT22;5580;50.106;8.702;2023-08-07T00:22:16;15.90;99.90
11055;DHT22;5580;50.106;8.702;2023-08-07T00:24:41;15.90;99.90
11055;DHT22;5580;50.106;8.702;2023-08-07T00:27:07;15.80;99.90
11055;DHT22;5580;50.106;8.702;2023-08-07T00:29:35;15.80;99.90
11055;DHT22;5580;50.106;8.702;2023-08-07T00:32:01;15.80;99.90
11055;DHT22;5580;50.106;8.702;2023-08-07T00:34:26;15.80;99.90
11055;DHT22;5580;50.106;8.702;2023-08-07T00:36:52;15.80;99.90
11055;DHT22;5580;50.106;8.702;2023-08-07T00:39:17;15.80;99.90
11055;DHT22;5580;50.106;8.702;2023-08-07T00:41:43;15.80;99.90
11055;DHT22;5580;50.106;8.702;2023-08-07T00:44:09;15.80;99.90
11055;DHT22;5580;50.106;8.702;2023-08-07T00:46:34;15.80;99.90
11055;DHT22;5580;50.106;8.702;2023-08-07T00:49:01;15.70;99.90
11055;DHT22;5580;50.106;8.702;2023-08-07T00:51:27;15.70;99.90
11055;DHT22;5580;50.106;8.702;2023-08-07T00:53:52;15.70;99.90
11055;DHT22;5580;50.106;8.702;2023-08-07T00:56:18;15.70;99.90
11055;DHT22;5580;50.106;8.702;2023-08-07T00:58:44;15.70;99.90
11055;DHT22;5580;50.106;8.702;2023-08-07T01:01:10;15.70;99.90
11055;DHT22;5580;50.106;8.702;2023-08-07T01:03:36;15.70;99.90
11055;DHT22;5580;50.106;8.702;2023-08-07T01:06:01;15.70;99.90
11055;DHT22;5580;50.106;8.702;2023-08-07T01:08:27;15.80;99.90
11055;DHT22;5580;50.106;8.702;2023-08-07T01:13:36;15.70;99.90
11055;DHT22;5580;50.106;8.702;2023-08-07T01:16:13;15.70;99.90
11055;DHT22;5580;50.106;8.702;2023-08-07T01:18:42;15.70;99.90
11055;DHT22;5580;50.106;8.702;2023-08-07T01:21:17;15.70;99.90
11055;DHT22;5580;50.106;8.702;2023-08-07T01:23:43;15.70;99.90
11055;DHT22;5580;50.106;8.702;2023-08-07T01:26:08;15.70;99.90
11055;DHT22;5580;50.106;8.702;2023-08-07T01:28:39;15.70;99.90
11055;DHT22;5580;50.106;8.702;2023-08-07T01:31:13;15.70;99.90
11055;DHT22;5580;50.106;8.702;2023-08-07T01:34:02;15.70;99.90
11055;DHT22;5580;50.106;8.702;2023-08-07T01:36:29;15.70;99.90
11055;DHT22;5580;50.106;8.702;2023-08-07T01:38:59;15.70;99.90
11055;DHT22;5580;50.106;8.702;2023-08-07T01:41:26;15.60;99.90
11055;DHT22;5580;50.106;8.702;2023-08-07T01:43:52;15.70;99.90
11055;DHT22;5580;50.106;8.702;2023-08-07T01:46:18;15.70;99.90
11055;DHT22;5580;50.106;8.702;2023-08-07T01:48:45;15.70;99.90
11055;DHT22;5580;50.106;8.702;2023-08-07T01:51:10;15.70;99.90
11055;DHT22;5580;50.106;8.702;2023-08-07T01:53:36;15.70;99.90
11055;DHT22;5580;50.106;8.702;2023-08-07T01:56:01;15.70;99.90
11055;DHT22;5580;50.106;8.702;2023-08-07T01:58:27;15.70;99.90
11055;DHT22;5580;50.106;8.702;2023-08-07T02:00:53;15.80;99.90
11055;DHT22;5580;50.106;8.702;2023-08-07T02:03:19;15.70;99.90
11055;DHT22;5580;50.106;8.702;2023-08-07T02:05:45;15.70;99.90
11055;DHT22;5580;50.106;8.702;2023-08-07T02:08:11;15.70;99.90
11055;DHT22;5580;50.106;8.702;2023-08-07T02:10:37;15.70;99.90
11055;DHT22;5580;50.106;8.702;2023-08-07T02:13:03;15.60;99.90
11055;DHT22;5580;50.106;8.702;2023-08-07T02:15:29;15.60;99.90
11055;DHT22;5580;50.106;8.702;2023-08-07T02:17:55;15.60;99.90
11055;DHT22;5580;50.106;8.702;2023-08-07T02:20:20;15.60;99.90
11055;DHT22;5580;50.106;8.702;2023-08-07T02:22:46;15.60;99.90
11055;DHT22;5580;50.106;8.702;2023-08-07T02:25:12;15.60;99.90
11055;DHT22;5580;50.106;8.702;2023-08-07T02:27:38;15.60;99.90
11055;DHT22;5580;50.106;8.702;2023-08-07T02:30:04;15.60;99.90
11055;DHT22;5580;50.106;8.702;2023-08-07T02:32:31;15.60;99.90
11055;DHT22;5580;50.106;8.702;2023-08-07T02:34:56;15.60;99.90
11055;DHT22;5580;50.106;8.702;2023-08-07T02:37:22;15.60;99.90
11055;DHT22;5580;50.106;8.702;2023-08-07T02:39:48;15.60;99.90
11055;DHT22;5580;50.106;8.702;2023-08-07T02:42:14;15.60;99.90
11055;DHT22;5580;50.106;8.702;2023-08-07T02:44:39;15.60;99.90
11055;DHT22;5580;50.106;8.702;2023-08-07T02:47:06;15.60;99.90
11055;DHT22;5580;50.106;8.702;2023-08-07T02:49:31;15.60;99.90
11055;DHT22;5580;50.106;8.702;2023-08-07T02:51:57;15.50;99.90
11055;DHT22;5580;50.106;8.702;2023-08-07T02:54:23;15.50;99.90
11055;DHT22;5580;50.106;8.702;2023-08-07T02:56:49;15.50;99.90
11055;DHT22;5580;50.106;8.702;2023-08-07T02:59:15;15.50;99.90
11055;DHT22;5580;50.106;8.702;2023-08-07T03:01:41;15.50;99.90
11055;DHT22;5580;50.106;8.702;2023-08-07T03:04:07;15.40;99.90
11055;DHT22;5580;50.106;8.702;2023-08-07T03:06:33;15.40;99.90
11055;DHT22;5580;50.106;8.702;2023-08-07T03:08:59;15.40;99.90
11055;DHT22;5580;50.106;8.702;2023-08-07T03:11:24;15.40;99.90
11055;DHT22;5580;50.106;8.702;2023-08-07T03:13:50;15.40;99.90
11055;DHT22;5580;50.106;8.702;2023-08-07T03:16:17;15.40;99.90
11055;DHT22;5580;50.106;8.702;2023-08-07T03:18:43;15.40;99.90
11055;DHT22;5580;50.106;8.702;2023-08-07T03:21:09;15.40;99.90
11055;DHT22;5580;50.106;8.702;2023-08-07T03:23:34;15.40;99.90
11055;DHT22;5580;50.106;8.702;2023-08-07T03:26:07;15.30;99.90
11055;DHT22;5580;50.106;8.702;2023-08-07T03:28:34;15.30;99.90
11055;DHT22;5580;50.106;8.702;2023-08-07T03:31:00;15.30;99.90
11055;DHT22;5580;50.106;8.702;2023-08-07T03:33:26;15.30;99.90
11055;DHT22;5580;50.106;8.702;2023-08-07T03:35:52;15.30;99.90
11055;DHT22;5580;50.106;8.702;2023-08-07T03:38:18;15.30;99.90
11055;DHT22;5580;50.106;8.702;2023-08-07T03:40:44;15.30;99.90
11055;DHT22;5580;50.106;8.702;2023-08-07T03:43:09;15.30;99.90
11055;DHT22;5580;50.106;8.702;2023-08-07T03:45:35;15.30;99.90
11055;DHT22;5580;50.106;8.702;2023-08-07T03:48:01;15.30;99.90
11055;DHT22;5580;50.106;8.702;2023-08-07T03:50:27;15.30;99.90
11055;DHT22;5580;50.106;8.702;2023-08-07T03:52:52;15.30;99.90
11055;DHT22;5580;50.106;8.702;2023-08-07T03:55:18;15.30;99.90
11055;DHT22;5580;50.106;8.702;2023-08-07T03:57:44;15.30;99.90
11055;DHT22;5580;50.106;8.702;2023-08-07T04:00:10;15.30;99.90
11055;DHT22;5580;50.106;8.702;2023-08-07T04:02:36;15.30;99.90
11055;DHT22;5580;50.106;8.702;2023-08-07T04:05:02;15.30;99.90
11055;DHT22;5580;50.106;8.702;2023-08-07T04:07:28;15.30;99.90
11055;DHT22;5580;50.106;8.702;2023-08-07T04:09:53;15.30;99.90
11055;DHT22;5580;50.106;8.702;2023-08-07T04:12:19;15.30;99.90
11055;DHT22;5580;50.106;8.702;2023-08-07T04:14:44;15.30;99.90
11055;DHT22;5580;50.106;8.702;2023-08-07T04:17:10;15.20;99.90
11055;DHT22;5580;50.106;8.702;2023-08-07T04:19:36;15.20;99.90
11055;DHT22;5580;50.106;8.702;2023-08-07T04:22:02;15.30;99.90
11055;DHT22;5580;50.106;8.702;2023-08-07T04:24:28;15.30;99.90
11055;DHT22;5580;50.106;8.702;2023-08-07T04:26:53;15.30;99.90
11055;DHT22;5580;50.106;8.702;2023-08-07T04:29:19;15.30;99.90
11055;DHT22;5580;50.106;8.702;2023-08-07T04:31:45;15.30;99.90
11055;DHT22;5580;50.106;8.702;2023-08-07T04:34:10;15.20;99.90
11055;DHT22;5580;50.106;8.702;2023-08-07T04:36:36;15.30;99.90
11055;DHT22;5580;50.106;8.702;2023-08-07T04:39:01;15.20;99.90
11055;DHT22;5580;50.106;8.702;2023-08-07T04:41:27;15.20;99.90
11055;DHT22;5580;50.106;8.702;2023-08-07T04:43:53;15.20;99.90
11055;DHT22;5580;50.106;8.702;2023-08-07T04:46:18;15.20;99.90
11055;DHT22;5580;50.106;8.702;2023-08-07T04:48:44;15.20;99.90
11055;DHT22;5580;50.106;8.702;2023-08-07T04:51:09;15.20;99.90
11055;DHT22;5580;50.106;8.702;2023-08-07T04:53:35;15.20;99.90
11055;DHT22;5580;50.106;8.702;2023-08-07T04:56:01;15.20;99.90
11055;DHT22;5580;50.106;8.702;2023-08-07T04:58:26;15.20;99.90
11055;DHT22;5580;50.106;8.702;2023-08-07T05:00:55;15.20;99.90
11055;DHT22;5580;50.106;8.702;2023-08-07T05:03:21;15.20;99.90
11055;DHT22;5580;50.106;8.702;2023-08-07T05:05:46;15.20;99.90
11055;DHT22;5580;50.106;8.702;2023-08-07T05:08:12;15.30;99.90
11055;DHT22;5580;50.106;8.702;2023-08-07T05:10:37;15.30;99.90
11055;DHT22;5580;50.106;8.702;2023-08-07T05:13:03;15.30;99.90
11055;DHT22;5580;50.106;8.702;2023-08-07T05:15:28;15.30;99.90
11055;DHT22;5580;50.106;8.702;2023-08-07T05:17:56;15.30;99.90
11055;DHT22;5580;50.106;8.702;2023-08-07T05:20:21;15.30;99.90
11055;DHT22;5580;50.106;8.702;2023-08-07T05:22:47;15.40;99.90
11055;DHT22;5580;50.106;8.702;2023-08-07T05:25:13;15.40;99.90
11055;DHT22;5580;50.106;8.702;2023-08-07T05:27:42;15.40;99.90
11055;DHT22;5580;50.106;8.702;2023-08-07T05:30:08;15.30;99.90
11055;DHT22;5580;50.106;8.702;2023-08-07T05:32:33;15.30;99.90
11055;DHT22;5580;50.106;8.702;2023-08-07T05:35:05;15.30;99.90
11055;DHT22;5580;50.106;8.702;2023-08-07T05:37:32;15.30;99.90
11055;DHT22;5580;50.106;8.702;2023-08-07T05:39:58;15.30;99.90
11055;DHT22;5580;50.106;8.702;2023-08-07T05:42:24;15.30;99.90
11055;DHT22;5580;50.106;8.702;2023-08-07T05:44:49;15.30;99.90
11055;DHT22;5580;50.106;8.702;2023-08-07T05:47:15;15.30;99.90
11055;DHT22;5580;50.106;8.702;2023-08-07T05:49:41;15.30;99.90
11055;DHT22;5580;50.106;8.702;2023-08-07T05:52:06;15.30;99.90
11055;DHT22;5580;50.106;8.702;2023-08-07T05:54:32;15.30;99.90
11055;DHT22;5580;50.106;8.702;2023-08-07T05:56:58;15.30;99.90
11055;DHT22;5580;50.106;8.702;2023-08-07T05:59:23;15.30;99.90
11055;DHT22;5580;50.106;8.702;2023-08-07T06:01:49;15.30;99.90
11055;DHT22;5580;50.106;8.702;2023-08-07T06:04:15;15.30;99.90
11055;DHT22;5580;50.106;8.702;2023-08-07T06:06:41;15.30;99.90
11055;DHT22;5580;50.106;8.702;2023-08-07T06:09:08;15.30;99.90
11055;DHT22;5580;50.106;8.702;2023-08-07T06:11:34;15.30;99.90
11055;DHT22;5580;50.106;8.702;2023-08-07T06:14:00;15.30;99.90
11055;DHT22;5580;50.106;8.702;2023-08-07T06:16:25;15.40;99.90
11055;DHT22;5580;50.106;8.702;2023-08-07T06:18:51;15.40;99.90
11055;DHT22;5580;50.106;8.702;2023-08-07T06:21:17;15.30;99.90
11055;DHT22;5580;50.106;8.702;2023-08-07T06:23:43;15.30;99.90
11055;DHT22;5580;50.106;8.702;2023-08-07T06:26:09;15.30;99.90
11055;DHT22;5580;50.106;8.702;2023-08-07T06:28:35;15.30;99.90
11055;DHT22;5580;50.106;8.702;2023-08-07T06:31:07;15.30;99.90
11055;DHT22;5580;50.106;8.702;2023-08-07T06:33:33;15.40;99.90
11055;DHT22;5580;50.106;8.702;2023-08-07T06:36:00;15.40;99.90
11055;DHT22;5580;50.106;8.702;2023-08-07T06:38:26;15.40;99.90
11055;DHT22;5580;50.106;8.702;2023-08-07T06:40:51;15.30;99.90
11055;DHT22;5580;50.106;8.702;2023-08-07T06:43:17;15.40;99.90
11055;DHT22;5580;50.106;8.702;2023-08-07T06:45:48;15.30;99.90
11055;DHT22;5580;50.106;8.702;2023-08-07T06:48:14;15.30;99.90
11055;DHT22;5580;50.106;8.702;2023-08-07T06:50:40;15.30;99.90
11055;DHT22;5580;50.106;8.702;2023-08-07T06:53:06;15.30;99.90
11055;DHT22;5580;50.106;8.702;2023-08-07T06:55:31;15.30;99.90
11055;DHT22;5580;50.106;8.702;2023-08-07T06:57:58;15.30;99.90
11055;DHT22;5580;50.106;8.702;2023-08-07T07:00:24;15.30;99.90
11055;DHT22;5580;50.106;8.702;2023-08-07T07:02:50;15.40;99.90
11055;DHT22;5580;50.106;8.702;2023-08-07T07:05:16;15.40;99.90
11055;DHT22;5580;50.106;8.702;2023-08-07T07:07:41;15.40;99.90
11055;DHT22;5580;50.106;8.702;2023-08-07T07:10:07;15.30;99.90
11055;DHT22;5580;50.106;8.702;2023-08-07T07:12:33;15.30;99.90
11055;DHT22;5580;50.106;8.702;2023-08-07T07:14:59;15.40;99.90
11055;DHT22;5580;50.106;8.702;2023-08-07T07:17:24;15.40;99.90
11055;DHT22;5580;50.106;8.702;2023-08-07T07:19:50;15.40;99.90
11055;DHT22;5580;50.106;8.702;2023-08-07T07:22:16;15.40;99.90
11055;DHT22;5580;50.106;8.702;2023-08-07T07:24:41;15.40;99.90
11055;DHT22;5580;50.106;8.702;2023-08-07T07:27:07;15.40;99.90
11055;DHT22;5580;50.106;8.702;2023-08-07T07:29:33;15.30;99.90
11055;DHT22;5580;50.106;8.702;2023-08-07T07:31:58;15.40;99.90
11055;DHT22;5580;50.106;8.702;2023-08-07T07:34:24;15.40;99.90
11055;DHT22;5580;50.106;8.702;2023-08-07T07:36:50;15.50;99.90
11055;DHT22;5580;50.106;8.702;2023-08-07T07:39:16;15.40;99.90
11055;DHT22;5580;50.106;8.702;2023-08-07T07:41:42;15.40;99.90
11055;DHT22;5580;50.106;8.702;2023-08-07T07:44:08;15.40;99.90
11055;DHT22;5580;50.106;8.702;2023-08-07T07:46:34;15.40;99.90
11055;DHT22;5580;50.106;8.702;2023-08-07T07:49:00;15.50;99.90
11055;DHT22;5580;50.106;8.702;2023-08-07T07:51:26;15.50;99.90
11055;DHT22;5580;50.106;8.702;2023-08-07T07:53:52;15.50;99.90
11055;DHT22;5580;50.106;8.702;2023-08-07T07:56:18;15.50;99.90
11055;DHT22;5580;50.106;8.702;2023-08-07T07:58:43;15.50;99.90
11055;DHT22;5580;50.106;8.702;2023-08-07T08:01:09;15.50;99.90
11055;DHT22;5580;50.106;8.702;2023-08-07T08:03:35;15.60;99.90
11055;DHT22;5580;50.106;8.702;2023-08-07T08:06:01;15.60;99.90
11055;DHT22;5580;50.106;8.702;2023-08-07T08:08:26;15.60;99.90
11055;DHT22;5580;50.106;8.702;2023-08-07T08:10:52;15.60;99.90
11055;DHT22;5580;50.106;8.702;2023-08-07T08:13:18;15.50;99.90
11055;DHT22;5580;50.106;8.702;2023-08-07T08:15:44;15.60;99.90
11055;DHT22;5580;50.106;8.702;2023-08-07T08:18:10;15.60;99.90
11055;DHT22;5580;50.106;8.702;2023-08-07T08:20:37;15.60;99.90
11055;DHT22;5580;50.106;8.702;2023-08-07T08:23:03;15.50;99.90
11055;DHT22;5580;50.106;8.702;2023-08-07T08:25:28;15.60;99.90
11055;DHT22;5580;50.106;8.702;2023-08-07T08:27:54;15.60;99.90
11055;DHT22;5580;50.106;8.702;2023-08-07T08:30:20;15.50;99.90
11055;DHT22;5580;50.106;8.702;2023-08-07T08:32:46;15.50;99.90
11055;DHT22;5580;50.106;8.702;2023-08-07T08:35:12;15.50;99.90
11055;DHT22;5580;50.106;8.702;2023-08-07T08:37:37;15.60;99.90
11055;DHT22;5580;50.106;8.702;2023-08-07T08:40:03;15.60;99.90
11055;DHT22;5580;50.106;8.702;2023-08-07T08:42:29;15.60;99.90
11055;DHT22;5580;50.106;8.702;2023-08-07T08:44:56;15.60;99.90
11055;DHT22;5580;50.106;8.702;2023-08-07T08:47:22;15.60;99.90
11055;DHT22;5580;50.106;8.702;2023-08-07T08:49:58;15.60;99.90
11055;DHT22;5580;50.106;8.702;2023-08-07T08:52:26;15.60;99.90
11055;DHT22;5580;50.106;8.702;2023-08-07T08:54:53;15.50;99.90
11055;DHT22;5580;50.106;8.702;2023-08-07T08:57:20;15.50;99.90
11055;DHT22;5580;50.106;8.702;2023-08-07T08:59:46;15.60;99.90
11055;DHT22;5580;50.106;8.702;2023-08-07T09:02:12;15.60;99.90
11055;DHT22;5580;50.106;8.702;2023-08-07T09:04:38;15.60;99.90
11055;DHT22;5580;50.106;8.702;2023-08-07T09:07:04;15.60;99.90
11055;DHT22;5580;50.106;8.702;2023-08-07T09:09:30;15.60;99.90
11055;DHT22;5580;50.106;8.702;2023-08-07T09:11:58;15.60;99.90
11055;DHT22;5580;50.106;8.702;2023-08-07T09:14:27;15.50;99.90
11055;DHT22;5580;50.106;8.702;2023-08-07T09:16:58;15.50;99.90
11055;DHT22;5580;50.106;8.702;2023-08-07T09:19:24;15.50;99.90
11055;DHT22;5580;50.106;8.702;2023-08-07T09:21:51;15.50;99.90
11055;DHT22;5580;50.106;8.702;2023-08-07T09:24:17;15.50;99.90
11055;DHT22;5580;50.106;8.702;2023-08-07T09:26:44;15.60;99.90
11055;DHT22;5580;50.106;8.702;2023-08-07T09:29:09;15.60;99.90
11055;DHT22;5580;50.106;8.702;2023-08-07T09:31:36;15.60;99.90
11055;DHT22;5580;50.106;8.702;2023-08-07T09:34:03;15.60;99.90
11055;DHT22;5580;50.106;8.702;2023-08-07T09:36:34;15.60;99.90
11055;DHT22;5580;50.106;8.702;2023-08-07T09:39:03;15.60;99.90
11055;DHT22;5580;50.106;8.702;2023-08-07T09:41:30;15.60;99.90
11055;DHT22;5580;50.106;8.702;2023-08-07T09:43:56;15.60;99.90
11055;DHT22;5580;50.106;8.702;2023-08-07T09:46:23;15.60;99.90
11055;DHT22;5580;50.106;8.702;2023-08-07T09:48:50;15.60;99.90
11055;DHT22;5580;50.106;8.702;2023-08-07T09:51:16;15.70;99.90
11055;DHT22;5580;50.106;8.702;2023-08-07T09:53:41;15.70;99.90
11055;DHT22;5580;50.106;8.702;2023-08-07T09:56:07;15.70;99.90
11055;DHT22;5580;50.106;8.702;2023-08-07T09:58:33;15.70;99.90
11055;DHT22;5580;50.106;8.702;2023-08-07T10:01:00;15.80;99.90
11055;DHT22;5580;50.106;8.702;2023-08-07T10:03:26;15.80;99.90
11055;DHT22;5580;50.106;8.702;2023-08-07T10:05:52;15.70;99.90
11055;DHT22;5580;50.106;8.702;2023-08-07T10:08:18;15.70;99.90
11055;DHT22;5580;50.106;8.702;2023-08-07T10:10:44;15.80;99.90
11055;DHT22;5580;50.106;8.702;2023-08-07T10:13:15;15.80;99.90
11055;DHT22;5580;50.106;8.702;2023-08-07T10:15:41;15.80;99.90
11055;DHT22;5580;50.106;8.702;2023-08-07T10:18:09;15.80;99.90
11055;DHT22;5580;50.106;8.702;2023-08-07T10:20:36;15.80;99.90
11055;DHT22;5580;50.106;8.702;2023-08-07T10:23:09;15.80;99.90
11055;DHT22;5580;50.106;8.702;2023-08-07T10:25:38;15.80;99.90
11055;DHT22;5580;50.106;8.702;2023-08-07T10:28:08;15.80;99.90
11055;DHT22;5580;50.106;8.702;2023-08-07T10:30:36;15.80;99.90
11055;DHT22;5580;50.106;8.702;2023-08-07T10:33:03;15.80;99.90
11055;DHT22;5580;50.106;8.702;2023-08-07T10:35:31;15.70;99.90
11055;DHT22;5580;50.106;8.702;2023-08-07T10:38:10;15.70;99.90
11055;DHT22;5580;50.106;8.702;2023-08-07T10:43:30;15.80;99.90
11055;DHT22;5580;50.106;8.702;2023-08-07T10:46:19;15.80;99.90
11055;DHT22;5580;50.106;8.702;2023-08-07T10:48:47;15.70;99.90
11055;DHT22;5580;50.106;8.702;2023-08-07T10:51:19;15.80;99.90
11055;DHT22;5580;50.106;8.702;2023-08-07T10:53:47;15.80;99.90
11055;DHT22;5580;50.106;8.702;2023-08-07T10:56:33;15.80;99.90
11055;DHT22;5580;50.106;8.702;2023-08-07T10:59:08;15.80;99.90
11055;DHT22;5580;50.106;8.702;2023-08-07T11:01:40;15.90;99.90
11055;DHT22;5580;50.106;8.702;2023-08-07T11:04:11;15.90;99.90
11055;DHT22;5580;50.106;8.702;2023-08-07T11:06:38;15.90;99.90
11055;DHT22;5580;50.106;8.702;2023-08-07T11:09:06;15.80;99.90
11055;DHT22;5580;50.106;8.702;2023-08-07T11:14:06;15.90;99.90
11055;DHT22;5580;50.106;8.702;2023-08-07T11:16:34;16.00;99.90
11055;DHT22;5580;50.106;8.702;2023-08-07T11:19:01;16.00;99.90
11055;DHT22;5580;50.106;8.702;2023-08-07T11:21:27;15.90;99.90
11055;DHT22;5580;50.106;8.702;2023-08-07T11:23:52;15.90;99.90
11055;DHT22;5580;50.106;8.702;2023-08-07T11:26:18;15.90;99.90
11055;DHT22;5580;50.106;8.702;2023-08-07T11:28:47;16.00;99.90
11055;DHT22;5580;50.106;8.702;2023-08-07T11:31:14;16.00;99.90
11055;DHT22;5580;50.106;8.702;2023-08-07T11:33:40;16.00;99.90
11055;DHT22;5580;50.106;8.702;2023-08-07T11:36:13;16.00;99.90
11055;DHT22;5580;50.106;8.702;2023-08-07T11:38:43;16.00;99.90
11055;DHT22;5580;50.106;8.702;2023-08-07T11:41:11;16.00;99.90
11055;DHT22;5580;50.106;8.702;2023-08-07T11:43:37;16.10;99.90
11055;DHT22;5580;50.106;8.702;2023-08-07T11:46:06;16.10;99.90
11055;DHT22;5580;50.106;8.702;2023-08-07T11:48:34;16.10;99.90
11055;DHT22;5580;50.106;8.702;2023-08-07T11:51:01;16.10;99.90
11055;DHT22;5580;50.106;8.702;2023-08-07T11:53:29;16.10;99.90
11055;DHT22;5580;50.106;8.702;2023-08-07T11:55:59;16.10;99.90
11055;DHT22;5580;50.106;8.702;2023-08-07T11:58:27;16.10;99.90
11055;DHT22;5580;50.106;8.702;2023-08-07T12:00:53;16.20;99.90
11055;DHT22;5580;50.106;8.702;2023-08-07T12:03:29;16.10;99.90
11055;DHT22;5580;50.106;8.702;2023-08-07T12:05:56;16.20;99.90
11055;DHT22;5580;50.106;8.702;2023-08-07T12:08:23;16.20;99.90
11055;DHT22;5580;50.106;8.702;2023-08-07T12:10:50;16.20;99.90
11055;DHT22;5580;50.106;8.702;2023-08-07T12:13:19;16.30;99.90
11055;DHT22;5580;50.106;8.702;2023-08-07T12:15:45;16.30;99.90
11055;DHT22;5580;50.106;8.702;2023-08-07T12:18:10;16.30;99.90
11055;DHT22;5580;50.106;8.702;2023-08-07T12:20:38;16.40;99.90
11055;DHT22;5580;50.106;8.702;2023-08-07T12:23:04;16.40;99.90
11055;DHT22;5580;50.106;8.702;2023-08-07T12:25:29;16.40;99.90
11055;DHT22;5580;50.106;8.702;2023-08-07T12:27:55;16.40;99.90
11055;DHT22;5580;50.106;8.702;2023-08-07T12:30:20;16.50;99.90
11055;DHT22;5580;50.106;8.702;2023-08-07T12:32:46;16.50;99.90
11055;DHT22;5580;50.106;8.702;2023-08-07T12:35:11;16.50;99.90
11055;DHT22;5580;50.106;8.702;2023-08-07T12:37:37;16.60;99.90
11055;DHT22;5580;50.106;8.702;2023-08-07T12:40:03;16.60;99.90
11055;DHT22;5580;50.106;8.702;2023-08-07T12:42:31;16.70;99.90
11055;DHT22;5580;50.106;8.702;2023-08-07T12:44:56;16.70;99.90
11055;DHT22;5580;50.106;8.702;2023-08-07T12:47:23;16.80;99.90
11055;DHT22;5580;50.106;8.702;2023-08-07T12:49:49;16.80;99.90
11055;DHT22;5580;50.106;8.702;2023-08-07T12:52:15;16.90;99.90
11055;DHT22;5580;50.106;8.702;2023-08-07T12:54:40;16.90;99.90
11055;DHT22;5580;50.106;8.702;2023-08-07T12:57:06;17.00;99.90
11055;DHT22;5580;50.106;8.702;2023-08-07T12:59:31;17.00;99.90
11055;DHT22;5580;50.106;8.702;2023-08-07T13:01:57;17.10;99.90
11055;DHT22;5580;50.106;8.702;2023-08-07T13:04:23;17.10;99.90
11055;DHT22;5580;50.106;8.702;2023-08-07T13:06:48;17.10;99.90
11055;DHT22;5580;50.106;8.702;2023-08-07T13:09:15;17.10;99.90
11055;DHT22;5580;50.106;8.702;2023-08-07T13:11:40;17.10;99.90
11055;DHT22;5580;50.106;8.702;2023-08-07T13:14:06;17.10;99.90
11055;DHT22;5580;50.106;8.702;2023-08-07T13:16:31;17.20;99.90
11055;DHT22;5580;50.106;8.702;2023-08-07T13:18:57;17.20;99.90
11055;DHT22;5580;50.106;8.702;2023-08-07T13:21:23;17.20;99.90
11055;DHT22;5580;50.106;8.702;2023-08-07T13:23:48;17.20;99.90
11055;DHT22;5580;50.106;8.702;2023-08-07T13:26:14;17.30;99.90
11055;DHT22;5580;50.106;8.702;2023-08-07T13:28:41;17.30;99.90
11055;DHT22;5580;50.106;8.702;2023-08-07T13:31:06;17.40;99.90
11055;DHT22;5580;50.106;8.702;2023-08-07T13:33:32;17.40;99.90
11055;DHT22;5580;50.106;8.702;2023-08-07T13:35:58;17.50;99.90
11055;DHT22;5580;50.106;8.702;2023-08-07T13:38:23;17.50;99.90
11055;DHT22;5580;50.106;8.702;2023-08-07T13:40:49;17.50;99.90
11055;DHT22;5580;50.106;8.702;2023-08-07T13:43:16;17.50;99.90
11055;DHT22;5580;50.106;8.702;2023-08-07T13:45:41;17.50;99.90
11055;DHT22;5580;50.106;8.702;2023-08-07T13:48:07;17.50;99.90
11055;DHT22;5580;50.106;8.702;2023-08-07T13:50:35;17.60;99.90
11055;DHT22;5580;50.106;8.702;2023-08-07T13:53:02;17.60;99.90
11055;DHT22;5580;50.106;8.702;2023-08-07T13:55:28;17.60;99.90
11055;DHT22;5580;50.106;8.702;2023-08-07T13:57:54;17.60;99.90
11055;DHT22;5580;50.106;8.702;2023-08-07T14:00:20;17.70;99.90
11055;DHT22;5580;50.106;8.702;2023-08-07T14:02:46;17.70;99.90
11055;DHT22;5580;50.106;8.702;2023-08-07T14:05:11;17.80;99.90
11055;DHT22;5580;50.106;8.702;2023-08-07T14:07:37;17.80;99.90
11055;DHT22;5580;50.106;8.702;2023-08-07T14:10:03;17.90;99.90
11055;DHT22;5580;50.106;8.702;2023-08-07T14:12:28;17.90;99.90
11055;DHT22;5580;50.106;8.702;2023-08-07T14:14:54;17.90;99.90
11055;DHT22;5580;50.106;8.702;2023-08-07T14:17:20;18.00;99.90
11055;DHT22;5580;50.106;8.702;2023-08-07T14:19:45;18.00;99.90
11055;DHT22;5580;50.106;8.702;2023-08-07T14:22:11;18.00;99.90
11055;DHT22;5580;50.106;8.702;2023-08-07T14:24:37;18.10;99.90
11055;DHT22;5580;50.106;8.702;2023-08-07T14:27:03;18.10;99.90
11055;DHT22;5580;50.106;8.702;2023-08-07T14:29:29;18.20;99.90
11055;DHT22;5580;50.106;8.702;2023-08-07T14:31:55;18.20;99.90
11055;DHT22;5580;50.106;8.702;2023-08-07T14:34:20;18.20;99.90
11055;DHT22;5580;50.106;8.702;2023-08-07T14:36:46;18.30;99.90
11055;DHT22;5580;50.106;8.702;2023-08-07T14:39:12;18.30;99.90
11055;DHT22;5580;50.106;8.702;2023-08-07T14:41:37;18.30;99.90
11055;DHT22;5580;50.106;8.702;2023-08-07T14:44:03;18.30;99.90
11055;DHT22;5580;50.106;8.702;2023-08-07T14:46:29;18.30;99.90
11055;DHT22;5580;50.106;8.702;2023-08-07T14:48:54;18.30;99.90
11055;DHT22;5580;50.106;8.702;2023-08-07T14:51:21;18.30;99.90
11055;DHT22;5580;50.106;8.702;2023-08-07T14:53:46;18.30;99.90
11055;DHT22;5580;50.106;8.702;2023-08-07T14:56:12;18.40;99.90
11055;DHT22;5580;50.106;8.702;2023-08-07T14:58:38;18.40;99.90
11055;DHT22;5580;50.106;8.702;2023-08-07T15:01:03;18.40;99.90
11055;DHT22;5580;50.106;8.702;2023-08-07T15:03:29;18.40;99.90
11055;DHT22;5580;50.106;8.702;2023-08-07T15:05:55;18.40;99.90
11055;DHT22;5580;50.106;8.702;2023-08-07T15:08:22;18.50;99.90
11055;DHT22;5580;50.106;8.702;2023-08-07T15:10:48;18.50;99.90
11055;DHT22;5580;50.106;8.702;2023-08-07T15:13:16;18.50;99.90
11055;DHT22;5580;50.106;8.702;2023-08-07T15:15:42;18.60;99.90
11055;DHT22;5580;50.106;8.702;2023-08-07T15:18:07;18.60;99.90
11055;DHT22;5580;50.106;8.702;2023-08-07T15:20:36;18.60;99.90
11055;DHT22;5580;50.106;8.702;2023-08-07T15:23:02;18.70;99.90
11055;DHT22;5580;50.106;8.702;2023-08-07T15:25:29;18.70;99.90
11055;DHT22;5580;50.106;8.702;2023-08-07T15:27:54;18.70;99.90
11055;DHT22;5580;50.106;8.702;2023-08-07T15:30:20;18.70;99.90
11055;DHT22;5580;50.106;8.702;2023-08-07T15:32:46;18.80;99.90
11055;DHT22;5580;50.106;8.702;2023-08-07T15:35:12;18.80;99.90
11055;DHT22;5580;50.106;8.702;2023-08-07T15:37:38;18.80;99.90
11055;DHT22;5580;50.106;8.702;2023-08-07T15:40:04;18.80;99.90
11055;DHT22;5580;50.106;8.702;2023-08-07T15:42:30;18.90;99.90
11055;DHT22;5580;50.106;8.702;2023-08-07T15:44:56;18.80;99.90
11055;DHT22;5580;50.106;8.702;2023-08-07T15:47:22;18.80;99.90